TTPP/POS METAR and TAF weather

Enter ICAO airport designator
Station Type Date Time Source
TTPP METAR 2021/09/24 03:00 UTC NOAA

TTPP 240300Z 11004KT 9999 FEW018 27/23 Q1013 NOSIG


Station Type Date Time Source
TTPP Decoded METAR 2021/09/24 03:00 UTC NOAA

Piarco International Airport, Trinidad, Trinidad and Tobago (TTPP) 10-37N 061-21W 15M
Sep 23, 2021 - 11:00 PM EDT / 2021.09.24 0300 UTC
Wind: from the ESE (110 degrees) at 5 MPH (4 KT):0
Visibility: greater than 7 mile(s):0
Sky conditions: mostly clear
Temperature: 80 F (27 C)
Dew Point: 73 F (23 C)
Relative Humidity: 78%
Pressure (altimeter): 29.91 in. Hg (1013 hPa)
ob: TTPP 240300Z 11004KT 9999 FEW018 27/23 Q1013 NOSIG
cycle: 3

Station Type Date Time Source
TTPP TAF 2021/09/24 00:00 UTC NOAA

TAF TTPP 232200Z 2400/2424 00000KT 9999 FEW016
BECMG 2411/2413 12010KT SCT022 PROB40
TEMPO 2416/2420 VRB10KT 5000 TSRA FEW010CB BKN015

Example: see airport list